createdAt,value
2022-10-21T00:01:07.158Z,17.38
2022-10-21T00:03:12.655Z,16.08
2022-10-21T00:05:14.392Z,16.10
2022-10-21T00:07:15.954Z,15.07
2022-10-21T00:09:17.885Z,16.23
2022-10-21T00:11:19.406Z,15.77
2022-10-21T00:13:21.570Z,15.18
2022-10-21T00:15:23.283Z,14.95
2022-10-21T00:17:24.877Z,15.90
2022-10-21T00:19:26.420Z,14.95
2022-10-21T00:21:28.218Z,15.02
2022-10-21T00:23:29.707Z,15.65
2022-10-21T00:25:31.218Z,14.50
2022-10-21T00:27:33.233Z,15.25
2022-10-21T00:29:34.824Z,15.52
2022-10-21T00:31:36.367Z,15.27
2022-10-21T00:33:38.098Z,15.50
2022-10-21T00:35:39.754Z,15.40
2022-10-21T00:37:41.377Z,16.27
2022-10-21T00:39:43.223Z,16.20
2022-10-21T00:41:44.775Z,15.93
2022-10-21T00:44:12.359Z,17.02
2022-10-21T00:46:18.323Z,15.63
2022-10-21T00:48:38.470Z,16.50
2022-10-21T00:50:46.742Z,17.08
2022-10-21T00:52:48.568Z,17.10
2022-10-21T00:54:52.771Z,17.70
2022-10-21T00:56:54.986Z,16.92
2022-10-21T00:58:57.881Z,16.85
2022-10-21T01:01:00.069Z,17.65
2022-10-21T01:03:01.714Z,17.50
2022-10-21T01:05:04.557Z,17.08
2022-10-21T01:07:06.129Z,17.42
2022-10-21T01:09:07.736Z,18.35
2022-10-21T01:11:14.448Z,17.73
2022-10-21T01:13:15.913Z,18.52
2022-10-21T01:15:35.181Z,17.75
2022-10-21T01:17:54.226Z,17.98
2022-10-21T01:20:13.978Z,18.17
2022-10-21T01:22:15.462Z,17.95
2022-10-21T01:24:31.237Z,19.20
2022-10-21T01:27:05.360Z,17.83
2022-10-21T01:29:12.944Z,18.33
2022-10-21T01:31:20.683Z,17.95
2022-10-21T01:33:34.867Z,18.10
2022-10-21T01:35:36.378Z,18.58
2022-10-21T01:37:43.019Z,17.50
2022-10-21T01:40:04.949Z,18.33
2022-10-21T01:42:16.472Z,17.92
2022-10-21T01:44:24.211Z,18.67
2022-10-21T01:46:27.635Z,17.83
2022-10-21T01:48:32.299Z,18.67
2022-10-21T01:50:38.242Z,17.35
2022-10-21T01:52:41.211Z,18.02
2022-10-21T01:54:47.947Z,17.85
2022-10-21T01:56:50.097Z,17.52
2022-10-21T01:58:53.060Z,18.60
2022-10-21T02:02:57.095Z,16.98
2022-10-21T02:04:59.347Z,16.08
2022-10-21T02:07:00.998Z,16.60
2022-10-21T02:09:02.789Z,17.13
2022-10-21T02:11:06.871Z,17.02
2022-10-21T02:13:10.605Z,15.90
2022-10-21T02:15:13.573Z,16.58
2022-10-21T02:17:17.447Z,16.75
2022-10-21T02:19:20.065Z,16.80
2022-10-21T02:21:23.423Z,17.20
2022-10-21T02:23:30.413Z,17.05
2022-10-21T02:25:33.589Z,15.98
2022-10-21T02:27:35.487Z,17.33
2022-10-21T02:29:38.654Z,16.63
2022-10-21T02:31:59.067Z,15.98
2022-10-21T02:34:03.595Z,16.95
2022-10-21T02:36:16.031Z,19.20
2022-10-21T02:38:28.819Z,16.75
2022-10-21T02:40:34.134Z,17.27
2022-10-21T02:42:39.988Z,17.38
2022-10-21T02:44:41.830Z,16.80
2022-10-21T02:46:44.673Z,16.08
2022-10-21T02:48:47.005Z,17.17
2022-10-21T02:50:48.602Z,17.17
2022-10-21T02:52:50.507Z,17.23
2022-10-21T02:54:52.155Z,17.10
2022-10-21T02:56:53.688Z,17.05
2022-10-21T02:58:55.451Z,17.88
2022-10-21T03:00:57.061Z,17.63
2022-10-21T03:02:58.682Z,17.73
2022-10-21T03:05:00.466Z,18.35
2022-10-21T03:07:01.977Z,18.17
2022-10-21T03:09:05.341Z,19.10
2022-10-21T03:11:07.151Z,18.38
2022-10-21T03:13:08.671Z,19.42
2022-10-21T03:15:10.497Z,20.15
2022-10-21T03:17:12.195Z,19.27
2022-10-21T03:19:13.814Z,19.25
2022-10-21T03:21:15.395Z,19.15
2022-10-21T03:23:17.835Z,18.52
2022-10-21T03:25:19.552Z,17.52
2022-10-21T03:27:21.233Z,19.33
2022-10-21T03:29:22.977Z,18.58
2022-10-21T03:31:24.463Z,18.77
2022-10-21T03:33:25.956Z,19.75
2022-10-21T03:35:28.208Z,19.08
2022-10-21T03:37:29.813Z,19.07
2022-10-21T03:39:31.315Z,20.23
2022-10-21T03:41:33.014Z,17.92
2022-10-21T03:43:34.540Z,17.83
2022-10-21T03:45:36.091Z,18.10
2022-10-21T03:47:37.998Z,18.60
2022-10-21T03:49:39.512Z,19.13
2022-10-21T03:51:41.104Z,19.02
2022-10-21T03:53:43.936Z,19.67
2022-10-21T03:55:45.673Z,19.77
2022-10-21T03:57:47.631Z,19.30
2022-10-21T03:59:49.322Z,20.30
2022-10-21T04:01:50.921Z,18.92
2022-10-21T04:03:53.157Z,20.67
2022-10-21T04:05:55.456Z,21.02
2022-10-21T04:07:57.072Z,20.40
2022-10-21T04:09:58.659Z,19.50
2022-10-21T04:12:00.389Z,19.45
2022-10-21T04:14:02.037Z,18.77
2022-10-21T04:16:04.927Z,19.13
2022-10-21T04:18:07.289Z,18.75
2022-10-21T04:20:10.184Z,20.10
2022-10-21T04:22:11.711Z,19.17
2022-10-21T04:24:13.642Z,18.00
2022-10-21T04:26:15.184Z,18.75
2022-10-21T04:28:16.769Z,19.42
2022-10-21T04:30:18.566Z,17.73
2022-10-21T04:32:20.272Z,18.88
2022-10-21T04:34:21.803Z,18.17
2022-10-21T04:36:23.515Z,18.60
2022-10-21T04:38:25.304Z,18.63
2022-10-21T04:40:27.165Z,17.42
2022-10-21T04:44:37.280Z,17.75
2022-10-21T04:46:38.816Z,16.67
2022-10-21T04:48:40.535Z,17.92
2022-10-21T04:50:42.051Z,17.05
2022-10-21T04:52:43.576Z,17.55
2022-10-21T04:54:45.332Z,15.68
2022-10-21T04:56:46.876Z,16.60
2022-10-21T04:58:48.414Z,16.80
2022-10-21T05:00:50.739Z,16.58
2022-10-21T05:02:52.313Z,17.42
2022-10-21T05:04:53.859Z,16.73
2022-10-21T05:06:55.583Z,16.20
2022-10-21T05:08:57.251Z,17.33
2022-10-21T05:11:00.203Z,17.75
2022-10-21T05:13:01.962Z,18.23
2022-10-21T05:15:03.806Z,16.90
2022-10-21T05:17:05.451Z,17.25
2022-10-21T05:19:07.185Z,16.35
2022-10-21T05:21:08.972Z,16.67
2022-10-21T05:23:10.650Z,16.77
2022-10-21T05:25:12.448Z,18.02
2022-10-21T05:27:13.965Z,18.00
2022-10-21T05:29:15.610Z,19.77
2022-10-21T05:31:17.339Z,17.27
2022-10-21T05:33:18.991Z,16.02
2022-10-21T05:35:20.507Z,16.63
2022-10-21T05:37:22.246Z,17.98
2022-10-21T05:39:23.751Z,19.00
2022-10-21T05:41:25.267Z,19.98
2022-10-21T05:43:28.007Z,16.83
2022-10-21T05:45:29.661Z,17.40
2022-10-21T05:47:31.181Z,16.30
2022-10-21T05:49:32.929Z,16.52
2022-10-21T05:51:34.491Z,16.42
2022-10-21T05:53:36.068Z,16.73
2022-10-21T05:55:37.863Z,26.60
2022-10-21T05:57:39.566Z,16.60
2022-10-21T05:59:41.121Z,15.52
2022-10-21T06:01:42.888Z,15.00
2022-10-21T06:03:44.383Z,15.52
2022-10-21T06:05:45.928Z,28.25
2022-10-21T06:07:48.116Z,16.33
2022-10-21T06:09:49.849Z,17.38
2022-10-21T06:11:51.607Z,17.50
2022-10-21T06:13:53.356Z,16.83
2022-10-21T06:15:54.868Z,16.50
2022-10-21T06:17:56.441Z,16.10
2022-10-21T06:19:58.178Z,15.88
2022-10-21T06:21:59.744Z,16.25
2022-10-21T06:24:01.289Z,15.20
2022-10-21T06:26:04.653Z,15.38
2022-10-21T06:28:06.275Z,15.68
2022-10-21T06:30:08.091Z,15.07
2022-10-21T06:32:10.266Z,14.93
2022-10-21T06:34:11.908Z,15.95
2022-10-21T06:36:13.536Z,16.35
2022-10-21T06:38:15.734Z,17.73
2022-10-21T06:40:17.346Z,14.23
2022-10-21T06:42:18.855Z,16.63
2022-10-21T06:44:20.758Z,14.48
2022-10-21T06:46:22.784Z,15.25
2022-10-21T06:48:24.292Z,15.55
2022-10-21T06:50:26.106Z,15.35
2022-10-21T06:52:27.738Z,16.40
2022-10-21T06:54:29.598Z,14.60
2022-10-21T06:56:31.842Z,16.17
2022-10-21T06:58:34.175Z,13.77
2022-10-21T07:00:37.152Z,15.15
2022-10-21T07:02:39.284Z,15.02
2022-10-21T07:04:45.031Z,14.60
2022-10-21T07:06:46.740Z,16.88
2022-10-21T07:08:57.989Z,15.43
2022-10-21T07:11:00.349Z,16.13
2022-10-21T07:13:01.883Z,14.63
2022-10-21T07:15:03.768Z,15.77
2022-10-21T07:17:05.348Z,15.20
2022-10-21T07:19:06.912Z,18.73
2022-10-21T07:21:10.072Z,15.15
2022-10-21T07:25:13.771Z,19.70
2022-10-21T07:27:15.526Z,18.98
2022-10-21T07:29:17.255Z,15.55
2022-10-21T07:31:19.476Z,14.13
2022-10-21T07:33:21.280Z,14.60
2022-10-21T07:35:23.484Z,14.77
2022-10-21T07:37:24.975Z,14.50
2022-10-21T07:39:27.274Z,13.70
2022-10-21T07:41:30.236Z,13.27
2022-10-21T07:45:34.079Z,13.98
2022-10-21T07:47:35.843Z,13.43
2022-10-21T07:49:37.533Z,13.52
2022-10-21T07:51:39.536Z,13.88
2022-10-21T07:53:41.157Z,14.90
2022-10-21T07:55:42.672Z,14.38
2022-10-21T07:57:44.759Z,16.00
2022-10-21T07:59:46.249Z,14.70
2022-10-21T08:03:55.515Z,13.35
2022-10-21T08:05:57.087Z,14.18
2022-10-21T08:07:58.892Z,17.08
2022-10-21T08:10:00.706Z,16.67
2022-10-21T08:12:02.229Z,15.13
2022-10-21T08:14:06.642Z,14.50
2022-10-21T08:16:08.613Z,13.15
2022-10-21T08:18:10.259Z,14.48
2022-10-21T08:20:12.192Z,14.35
2022-10-21T08:22:14.083Z,14.10
2022-10-21T08:24:15.854Z,14.70
2022-10-21T08:26:17.502Z,14.82
2022-10-21T08:28:19.780Z,15.00
2022-10-21T08:30:21.354Z,14.17
2022-10-21T08:32:22.899Z,13.48
2022-10-21T08:34:24.862Z,14.30
2022-10-21T08:36:26.475Z,14.30
2022-10-21T08:38:28.099Z,13.95
2022-10-21T08:40:31.863Z,13.45
2022-10-21T08:42:33.833Z,23.33
2022-10-21T08:44:48.117Z,16.77
2022-10-21T08:46:55.746Z,15.85
2022-10-21T08:49:04.016Z,14.35
2022-10-21T08:51:06.410Z,17.55
2022-10-21T08:53:27.273Z,14.45
2022-10-21T08:55:33.217Z,19.40
2022-10-21T08:57:35.551Z,18.60
2022-10-21T08:59:37.407Z,15.32
2022-10-21T09:01:43.088Z,15.65
2022-10-21T09:03:54.484Z,14.30
2022-10-21T09:05:56.240Z,14.52
2022-10-21T09:08:01.391Z,14.80
2022-10-21T09:10:07.078Z,14.90
2022-10-21T09:12:08.835Z,12.90
2022-10-21T09:14:23.997Z,12.88
2022-10-21T09:16:31.540Z,14.18
2022-10-21T09:18:48.296Z,16.10
2022-10-21T09:20:54.918Z,14.80
2022-10-21T09:23:16.672Z,14.95
2022-10-21T09:25:18.631Z,13.57
2022-10-21T09:27:27.041Z,15.93
2022-10-21T09:29:43.858Z,13.60
2022-10-21T09:31:48.726Z,13.68
2022-10-21T09:33:55.215Z,14.73
2022-10-21T09:35:59.715Z,13.80
2022-10-21T09:38:10.614Z,14.20
2022-10-21T09:40:20.170Z,13.00
2022-10-21T09:42:42.665Z,14.35
2022-10-21T09:44:44.232Z,11.80
2022-10-21T09:46:46.351Z,12.73
2022-10-21T09:51:34.912Z,13.18
2022-10-21T09:53:50.012Z,12.93
2022-10-21T09:55:58.876Z,13.82
2022-10-21T09:58:01.915Z,12.52
2022-10-21T10:02:07.234Z,11.10
2022-10-21T10:04:27.862Z,12.65
2022-10-21T10:06:30.821Z,13.10
2022-10-21T10:10:34.293Z,12.68
2022-10-21T10:12:36.036Z,12.05
2022-10-21T10:14:39.371Z,11.93
2022-10-21T10:16:41.217Z,12.57
2022-10-21T10:18:43.745Z,12.82
2022-10-21T10:20:45.436Z,13.70
2022-10-21T10:22:59.143Z,13.35
2022-10-21T10:25:09.696Z,13.60
2022-10-21T10:27:16.501Z,12.95
2022-10-21T10:29:25.730Z,12.13
2022-10-21T10:31:31.836Z,12.32
2022-10-21T10:33:35.785Z,12.57
2022-10-21T10:35:38.263Z,12.85
2022-10-21T10:37:40.643Z,15.05
2022-10-21T10:39:43.427Z,15.90
2022-10-21T10:41:46.990Z,14.85
2022-10-21T10:45:54.913Z,18.40
2022-10-21T10:47:58.386Z,14.20
2022-10-21T10:49:59.887Z,15.73
2022-10-21T10:52:15.350Z,13.65
2022-10-21T10:54:19.778Z,13.55
2022-10-21T10:56:44.618Z,13.30
2022-10-21T10:58:53.073Z,13.60
2022-10-21T11:00:57.196Z,12.63
2022-10-21T11:03:05.492Z,14.23
2022-10-21T11:05:13.864Z,14.13
2022-10-21T11:07:15.683Z,13.02
2022-10-21T11:09:18.793Z,14.18
2022-10-21T11:11:23.729Z,12.98
2022-10-21T11:13:25.636Z,13.18
2022-10-21T11:15:50.475Z,13.77
2022-10-21T11:18:17.131Z,13.35
2022-10-21T11:20:38.367Z,13.18
2022-10-21T11:22:55.610Z,12.60
2022-10-21T11:25:05.162Z,12.77
2022-10-21T11:27:09.909Z,14.18
2022-10-21T11:29:30.085Z,13.23
2022-10-21T11:31:43.746Z,13.23
2022-10-21T11:33:59.240Z,19.10
2022-10-21T11:36:11.773Z,17.83
2022-10-21T11:38:32.178Z,15.50
2022-10-21T11:40:41.351Z,13.07
2022-10-21T11:42:44.960Z,12.93
2022-10-21T11:44:46.521Z,13.70
2022-10-21T11:47:07.161Z,13.10
2022-10-21T11:49:17.699Z,12.77
2022-10-21T11:51:38.084Z,13.23
2022-10-21T11:53:58.123Z,13.10
2022-10-21T11:56:18.214Z,12.70
2022-10-21T11:58:32.785Z,12.13
2022-10-21T12:00:54.879Z,13.25
2022-10-21T12:03:02.348Z,14.63
2022-10-21T12:05:08.239Z,13.18
2022-10-21T12:07:14.058Z,13.48
2022-10-21T12:09:19.420Z,16.13
2022-10-21T12:11:24.015Z,15.00
2022-10-21T12:13:28.806Z,13.32
2022-10-21T12:15:36.517Z,13.27
2022-10-21T12:19:54.198Z,13.05
2022-10-21T12:21:55.870Z,13.23
2022-10-21T12:24:06.324Z,12.85
2022-10-21T12:26:23.065Z,12.88
2022-10-21T12:28:31.109Z,12.05
2022-10-21T12:30:37.801Z,11.88
2022-10-21T12:32:48.793Z,11.25
2022-10-21T12:34:50.311Z,12.38
2022-10-21T12:36:54.631Z,12.73
2022-10-21T12:38:57.588Z,12.13
2022-10-21T12:41:18.273Z,11.57
2022-10-21T12:43:27.301Z,11.63
2022-10-21T12:45:30.608Z,11.68
2022-10-21T12:49:35.808Z,11.77
2022-10-21T12:51:38.273Z,11.20
2022-10-21T12:53:48.186Z,11.30
2022-10-21T12:55:51.576Z,12.27
2022-10-21T12:57:57.992Z,12.95
2022-10-21T13:00:25.972Z,12.52
2022-10-21T13:02:28.380Z,11.98
2022-10-21T13:04:33.310Z,11.50
2022-10-21T13:06:55.724Z,11.27
2022-10-21T13:08:57.697Z,11.50
2022-10-21T13:11:20.242Z,11.55
2022-10-21T13:13:33.124Z,10.73
2022-10-21T13:15:45.126Z,10.90
2022-10-21T13:17:56.624Z,11.60
2022-10-21T13:20:21.022Z,11.80
2022-10-21T13:22:31.235Z,11.60
2022-10-21T13:24:33.865Z,11.50
2022-10-21T13:26:39.025Z,11.10
2022-10-21T13:28:41.360Z,11.55
2022-10-21T13:30:48.966Z,11.00
2022-10-21T13:32:59.279Z,10.75
2022-10-21T13:35:07.280Z,12.95
2022-10-21T13:37:13.666Z,11.32
2022-10-21T13:39:32.309Z,11.07
2022-10-21T13:41:34.333Z,12.73
2022-10-21T13:43:46.798Z,11.03
2022-10-21T13:45:49.658Z,11.35
2022-10-21T13:48:01.296Z,10.93
2022-10-21T13:50:12.079Z,10.68
2022-10-21T13:52:13.612Z,11.20
2022-10-21T13:54:15.905Z,11.35
2022-10-21T13:56:25.296Z,10.48
2022-10-21T13:58:28.420Z,10.68
2022-10-21T14:00:31.406Z,11.43
2022-10-21T14:04:40.044Z,10.90
2022-10-21T14:06:53.046Z,10.98
2022-10-21T14:08:55.586Z,10.20
2022-10-21T14:10:58.752Z,10.30
2022-10-21T14:15:13.240Z,11.20
2022-10-21T14:17:16.855Z,11.02
2022-10-21T14:19:20.651Z,11.05
2022-10-21T14:21:24.879Z,11.25
2022-10-21T14:23:27.370Z,10.88
2022-10-21T14:25:29.918Z,10.70
2022-10-21T14:27:32.722Z,10.95
2022-10-21T14:29:35.640Z,11.25
2022-10-21T14:31:37.178Z,10.50
2022-10-21T14:33:42.353Z,10.30
2022-10-21T14:35:43.990Z,10.02
2022-10-21T14:37:48.709Z,10.95
2022-10-21T14:39:50.480Z,11.48
2022-10-21T14:41:53.089Z,10.52
2022-10-21T14:43:54.851Z,10.57
2022-10-21T14:45:56.659Z,10.55
2022-10-21T14:48:02.114Z,9.82
2022-10-21T14:50:04.104Z,11.18
2022-10-21T14:52:07.861Z,10.90
2022-10-21T14:54:18.814Z,9.77
2022-10-21T14:56:22.366Z,10.88
2022-10-21T14:58:35.459Z,10.98
2022-10-21T15:00:41.452Z,10.65
2022-10-21T15:02:43.625Z,10.50
2022-10-21T15:04:51.276Z,10.75
2022-10-21T15:07:02.050Z,12.07
2022-10-21T15:09:09.322Z,11.38
2022-10-21T15:11:15.626Z,11.40
2022-10-21T15:13:17.860Z,10.52
2022-10-21T15:15:39.613Z,11.27
2022-10-21T15:17:41.879Z,10.25
2022-10-21T15:19:49.144Z,9.60
2022-10-21T15:21:52.587Z,11.13
2022-10-21T15:23:55.703Z,10.63
2022-10-21T15:26:03.710Z,10.60
2022-10-21T15:28:10.007Z,11.98
2022-10-21T15:30:16.851Z,10.60
2022-10-21T15:32:26.820Z,10.98
2022-10-21T15:34:29.959Z,11.15
2022-10-21T15:36:31.794Z,11.65
2022-10-21T15:38:33.368Z,11.32
2022-10-21T15:40:35.088Z,12.55
2022-10-21T15:42:36.924Z,12.02
2022-10-21T15:44:38.458Z,11.25
2022-10-21T15:46:46.210Z,12.82
2022-10-21T15:48:49.203Z,11.85
2022-10-21T15:50:50.794Z,12.43
2022-10-21T15:52:52.468Z,11.73
2022-10-21T15:54:54.589Z,11.63
2022-10-21T15:56:57.663Z,11.70
2022-10-21T16:01:01.018Z,12.23
2022-10-21T16:03:02.618Z,12.05
2022-10-21T16:05:04.382Z,12.15
2022-10-21T16:07:29.308Z,12.52
2022-10-21T16:09:30.848Z,12.85
2022-10-21T16:11:40.646Z,11.98
2022-10-21T16:13:43.663Z,12.95
2022-10-21T16:15:45.319Z,13.07
2022-10-21T16:17:48.434Z,13.20
2022-10-21T16:19:50.191Z,13.02
2022-10-21T16:21:51.708Z,12.65
2022-10-21T16:23:53.267Z,13.38
2022-10-21T16:25:56.060Z,13.57
2022-10-21T16:27:57.718Z,13.07
2022-10-21T16:29:59.241Z,13.25
2022-10-21T16:32:01.037Z,14.48
2022-10-21T16:34:02.620Z,14.10
2022-10-21T16:36:10.059Z,14.32
2022-10-21T16:38:11.938Z,12.98
2022-10-21T16:40:18.917Z,14.00
2022-10-21T16:42:20.559Z,14.02
2022-10-21T16:44:22.354Z,13.52
2022-10-21T16:46:30.145Z,15.18
2022-10-21T16:48:32.162Z,13.63
2022-10-21T16:50:43.698Z,14.82
2022-10-21T16:52:45.254Z,15.57
2022-10-21T16:54:48.904Z,14.80
2022-10-21T16:56:53.376Z,16.15
2022-10-21T16:58:57.050Z,14.52
2022-10-21T17:00:58.978Z,13.82
2022-10-21T17:03:00.860Z,15.35
2022-10-21T17:05:02.473Z,14.13
2022-10-21T17:07:04.137Z,14.38
2022-10-21T17:09:06.221Z,14.30
2022-10-21T17:11:14.808Z,14.90
2022-10-21T17:13:16.423Z,15.32
2022-10-21T17:15:18.132Z,14.90
2022-10-21T17:17:22.238Z,14.43
2022-10-21T17:19:24.310Z,15.02
2022-10-21T17:21:32.804Z,14.25
2022-10-21T17:23:34.408Z,15.57
2022-10-21T17:25:35.947Z,15.00
2022-10-21T17:27:37.958Z,14.70
2022-10-21T17:29:39.672Z,15.15
2022-10-21T17:31:42.268Z,14.55
2022-10-21T17:33:44.690Z,15.07
2022-10-21T17:35:46.354Z,15.10
2022-10-21T17:37:48.818Z,14.88
2022-10-21T17:39:50.770Z,14.77
2022-10-21T17:41:52.761Z,13.95
2022-10-21T17:43:55.705Z,14.60
2022-10-21T17:45:57.654Z,14.70
2022-10-21T17:47:59.276Z,14.57
2022-10-21T17:50:00.765Z,14.40
2022-10-21T17:52:02.584Z,14.40
2022-10-21T17:54:04.145Z,15.48
2022-10-21T17:56:06.943Z,15.45
2022-10-21T18:00:10.310Z,15.30
2022-10-21T18:02:11.899Z,15.30
2022-10-21T18:04:14.148Z,14.60
2022-10-21T18:06:15.944Z,15.68
2022-10-21T18:08:17.471Z,15.45
2022-10-21T18:10:19.206Z,15.65
2022-10-21T18:12:21.359Z,15.43
2022-10-21T18:14:23.017Z,16.63
2022-10-21T18:16:24.867Z,16.20
2022-10-21T18:18:26.487Z,15.82
2022-10-21T18:20:28.104Z,16.10
2022-10-21T18:22:29.835Z,16.45
2022-10-21T18:24:31.515Z,16.30
2022-10-21T18:26:33.311Z,17.70
2022-10-21T18:28:35.444Z,19.60
2022-10-21T18:30:46.122Z,16.25
2022-10-21T18:32:47.651Z,16.15
2022-10-21T18:34:49.542Z,15.70
2022-10-21T18:38:53.735Z,17.00
2022-10-21T18:41:02.175Z,16.90
2022-10-21T18:43:17.060Z,17.77
2022-10-21T18:45:18.622Z,16.15
2022-10-21T18:47:20.424Z,17.23
2022-10-21T18:49:22.180Z,17.45
2022-10-21T18:51:24.047Z,17.38
2022-10-21T18:53:26.125Z,21.73
2022-10-21T18:55:27.625Z,17.80
2022-10-21T18:57:29.332Z,16.92
2022-10-21T18:59:31.108Z,17.80
2022-10-21T19:01:32.838Z,17.80
2022-10-21T19:03:34.547Z,18.58
2022-10-21T19:05:36.464Z,19.33
2022-10-21T19:07:38.482Z,18.25
2022-10-21T19:09:40.340Z,19.63
2022-10-21T19:11:42.781Z,18.48
2022-10-21T19:13:44.450Z,18.25
2022-10-21T19:15:46.010Z,17.52
2022-10-21T19:17:47.868Z,20.92
2022-10-21T19:19:49.748Z,20.58
2022-10-21T19:21:51.563Z,21.43
2022-10-21T19:23:54.138Z,19.53
2022-10-21T19:25:55.959Z,20.52
2022-10-21T19:27:57.463Z,19.40
2022-10-21T19:29:59.233Z,21.60
2022-10-21T19:32:00.851Z,20.10
2022-10-21T19:34:02.643Z,21.13
2022-10-21T19:36:05.655Z,20.48
2022-10-21T19:38:11.560Z,19.35
2022-10-21T19:40:17.320Z,20.70
2022-10-21T19:42:19.045Z,19.30
2022-10-21T19:44:20.744Z,20.70
2022-10-21T19:46:25.509Z,23.13
2022-10-21T19:48:27.642Z,22.45
2022-10-21T19:50:29.230Z,19.85
2022-10-21T19:52:31.066Z,19.17
2022-10-21T19:54:32.819Z,21.38
2022-10-21T19:56:34.984Z,20.58
2022-10-21T19:58:37.202Z,20.00
2022-10-21T20:00:39.110Z,20.08
2022-10-21T20:02:41.864Z,20.30
2022-10-21T20:04:44.338Z,20.63
2022-10-21T20:06:47.792Z,20.77
2022-10-21T20:08:49.710Z,20.52
2022-10-21T20:11:05.666Z,20.52
2022-10-21T20:13:07.375Z,19.65
2022-10-21T20:15:09.155Z,21.42
2022-10-21T20:17:11.723Z,21.67
2022-10-21T20:19:15.942Z,20.77
2022-10-21T20:21:17.573Z,20.52
2022-10-21T20:23:19.162Z,19.98
2022-10-21T20:25:20.891Z,21.00
2022-10-21T20:27:22.392Z,21.25
2022-10-21T20:29:24.101Z,20.52
2022-10-21T20:31:25.944Z,20.83
2022-10-21T20:33:28.671Z,22.60
2022-10-21T20:35:30.320Z,21.45
2022-10-21T20:37:32.055Z,21.55
2022-10-21T20:39:33.590Z,21.45
2022-10-21T20:41:37.108Z,20.65
2022-10-21T20:43:39.607Z,21.73
2022-10-21T20:45:41.136Z,21.25
2022-10-21T20:47:43.117Z,20.92
2022-10-21T20:49:45.281Z,20.60
2022-10-21T20:51:46.876Z,19.17
2022-10-21T20:53:49.724Z,22.45
2022-10-21T20:55:55.007Z,24.38
2022-10-21T20:57:56.511Z,23.20
2022-10-21T20:59:58.208Z,22.20
2022-10-21T21:01:59.940Z,22.45
2022-10-21T21:04:04.935Z,23.73
2022-10-21T21:06:06.987Z,23.15
2022-10-21T21:08:08.922Z,24.58
2022-10-21T21:10:10.616Z,23.10
2022-10-21T21:12:12.292Z,23.50
2022-10-21T21:14:14.230Z,23.52
2022-10-21T21:16:17.127Z,23.58
2022-10-21T21:18:18.771Z,23.25
2022-10-21T21:20:20.495Z,23.30
2022-10-21T21:22:22.105Z,23.58
2022-10-21T21:24:23.759Z,24.55
2022-10-21T21:26:27.277Z,24.20
2022-10-21T21:28:32.693Z,23.55
2022-10-21T21:30:37.040Z,23.35
2022-10-21T21:32:39.172Z,24.60
2022-10-21T21:34:41.012Z,25.23
2022-10-21T21:36:42.535Z,23.63
2022-10-21T21:38:44.450Z,24.50
2022-10-21T21:40:46.539Z,25.05
2022-10-21T21:42:48.077Z,25.83
2022-10-21T21:44:49.914Z,25.23
2022-10-21T21:46:51.508Z,24.83
2022-10-21T21:48:56.037Z,30.10
2022-10-21T21:51:01.154Z,25.42
2022-10-21T21:53:02.787Z,25.08
2022-10-21T21:55:04.632Z,25.20
2022-10-21T21:59:28.014Z,25.10
2022-10-21T22:01:29.858Z,25.45
2022-10-21T22:03:31.703Z,25.52
2022-10-21T22:05:33.380Z,26.25
2022-10-21T22:07:34.880Z,26.30
2022-10-21T22:09:36.588Z,27.20
2022-10-21T22:11:38.457Z,25.63
2022-10-21T22:13:40.635Z,26.65
2022-10-21T22:15:47.975Z,26.38
2022-10-21T22:17:50.816Z,26.95
2022-10-21T22:19:53.934Z,28.83
2022-10-21T22:21:55.985Z,27.00
2022-10-21T22:23:57.710Z,26.52
2022-10-21T22:25:59.231Z,27.77
2022-10-21T22:28:00.956Z,27.13
2022-10-21T22:30:02.700Z,28.13
2022-10-21T22:32:04.958Z,29.48
2022-10-21T22:34:09.362Z,29.00
2022-10-21T22:36:16.274Z,28.83
2022-10-21T22:38:18.103Z,28.65
2022-10-21T22:40:19.794Z,28.20
2022-10-21T22:42:21.487Z,28.08
2022-10-21T22:44:23.177Z,30.08
2022-10-21T22:46:40.405Z,30.20
2022-10-21T22:48:42.046Z,27.15
2022-10-21T22:50:43.901Z,29.52
2022-10-21T22:52:45.670Z,28.08
2022-10-21T22:54:49.823Z,28.52
2022-10-21T22:56:51.838Z,29.92
2022-10-21T22:58:53.815Z,29.55
2022-10-21T23:03:03.240Z,29.77
2022-10-21T23:05:07.906Z,28.77
2022-10-21T23:07:09.578Z,31.15
2022-10-21T23:09:11.160Z,29.55
2022-10-21T23:11:12.971Z,30.33
2022-10-21T23:13:14.511Z,29.80
2022-10-21T23:15:16.014Z,29.67
2022-10-21T23:17:17.776Z,30.85
2022-10-21T23:19:19.277Z,30.52
2022-10-21T23:21:20.848Z,30.88
2022-10-21T23:23:22.677Z,30.45
2022-10-21T23:25:24.352Z,29.35
2022-10-21T23:27:27.886Z,31.08
2022-10-21T23:29:29.688Z,29.90
2022-10-21T23:31:31.272Z,29.17
2022-10-21T23:33:32.806Z,32.10
2022-10-21T23:35:34.715Z,31.63
2022-10-21T23:37:36.352Z,30.83
2022-10-21T23:39:37.879Z,31.58
2022-10-21T23:41:39.608Z,30.95
2022-10-21T23:43:41.304Z,29.35
2022-10-21T23:45:42.823Z,30.90
2022-10-21T23:47:44.687Z,30.67
2022-10-21T23:49:46.528Z,30.52
2022-10-21T23:51:48.501Z,31.70
2022-10-21T23:53:50.279Z,31.77
2022-10-21T23:55:51.774Z,31.85
2022-10-21T23:57:53.380Z,31.90
2022-10-21T23:59:55.150Z,31.05
